Terminal Aerodrome Forecast
Issued by NWS

Home | Current Version | Previous Version | Text Only | Print | Product List | Glossary On
Versions: 1 2 3 4 5 6 7 8 9 10 11 12 13 14 15 16 17 18 19 20 21 22 23 24 25 26 27 28 29 30 31 32 33 34
000
FTAK31 PAFA 310048 AAA
TAFAOM
TAF AMD
PAOM 310048Z 3101/3124 22010KT P6SM SCT100 BKN150
     FM310200 22007KT P6SM -SHRA SCT050 OVC100
     FM310600 21010KT P6SM -RA OVC025
     FM311400 22007KT 5SM -RA BR OVC007=

USA.gov is the U.S. government's official web portal to all federal, state and local government web resources and services.